createdAt,value
2022-10-15T00:02:05.606Z,15.18
2022-10-15T00:04:32.079Z,12.10
2022-10-15T00:06:58.639Z,12.82
2022-10-15T00:09:25.289Z,13.60
2022-10-15T00:11:51.780Z,16.02
2022-10-15T00:14:18.671Z,11.85
2022-10-15T00:16:45.619Z,10.48
2022-10-15T00:19:12.511Z,9.25
2022-10-15T00:21:39.484Z,13.07
2022-10-15T00:24:06.415Z,12.07
2022-10-15T00:26:32.920Z,14.55
2022-10-15T00:29:02.510Z,11.45
2022-10-15T00:31:31.326Z,17.45
2022-10-15T00:34:00.121Z,13.13
2022-10-15T00:36:31.966Z,12.02
2022-10-15T00:38:59.294Z,12.32
2022-10-15T00:41:32.767Z,13.73
2022-10-15T00:44:02.018Z,13.93
2022-10-15T00:46:33.467Z,15.63
2022-10-15T00:49:22.477Z,14.25
2022-10-15T00:51:56.016Z,10.43
2022-10-15T00:54:23.406Z,13.77
2022-10-15T00:56:50.716Z,13.48
2022-10-15T00:59:20.034Z,17.20
2022-10-15T01:01:46.701Z,12.18
2022-10-15T01:04:13.794Z,18.55
2022-10-15T01:06:40.724Z,16.55
2022-10-15T01:09:07.277Z,15.43
2022-10-15T01:11:45.059Z,16.50
2022-10-15T01:14:35.159Z,19.52
2022-10-15T01:17:27.912Z,14.63
2022-10-15T01:20:15.742Z,15.52
2022-10-15T01:23:23.670Z,16.65
2022-10-15T01:26:01.476Z,12.80
2022-10-15T01:28:39.799Z,20.40
2022-10-15T01:31:24.306Z,16.00
2022-10-15T01:34:06.185Z,14.35
2022-10-15T01:36:32.617Z,17.75
2022-10-15T01:39:23.339Z,15.35
2022-10-15T01:41:54.329Z,15.95
2022-10-15T01:44:27.736Z,14.38
2022-10-15T01:47:01.202Z,15.05
2022-10-15T01:49:33.119Z,16.80
2022-10-15T01:52:06.492Z,13.52
2022-10-15T01:54:34.572Z,15.32
2022-10-15T01:57:03.255Z,14.57
2022-10-15T01:59:32.751Z,16.35
2022-10-15T02:01:59.405Z,16.83
2022-10-15T02:04:30.886Z,12.45
2022-10-15T02:07:03.180Z,16.17
2022-10-15T02:09:33.765Z,15.73
2022-10-15T02:12:07.316Z,14.48
2022-10-15T02:14:43.831Z,14.32
2022-10-15T02:17:11.468Z,13.40
2022-10-15T02:19:56.480Z,13.57
2022-10-15T02:22:32.570Z,14.95
2022-10-15T02:25:06.210Z,14.90
2022-10-15T02:27:35.215Z,10.82
2022-10-15T02:30:07.768Z,15.32
2022-10-15T02:32:37.387Z,16.38
2022-10-15T02:35:06.121Z,13.38
2022-10-15T02:37:34.820Z,15.85
2022-10-15T02:40:01.719Z,10.50
2022-10-15T02:42:28.600Z,10.55
2022-10-15T02:44:55.123Z,18.20
2022-10-15T02:47:21.755Z,13.00
2022-10-15T02:49:48.361Z,9.38
2022-10-15T02:52:14.840Z,9.18
2022-10-15T02:54:41.360Z,11.18
2022-10-15T02:57:07.829Z,13.25
2022-10-15T02:59:34.274Z,12.15
2022-10-15T03:02:01.171Z,11.32
2022-10-15T03:04:27.699Z,9.57
2022-10-15T03:06:54.557Z,12.48
2022-10-15T03:09:21.070Z,19.27
2022-10-15T03:11:47.532Z,12.90
2022-10-15T03:14:14.088Z,13.68
2022-10-15T03:16:40.656Z,11.20
2022-10-15T03:19:07.168Z,11.63
2022-10-15T03:21:33.788Z,19.23
2022-10-15T03:24:00.365Z,16.23
2022-10-15T03:26:26.911Z,16.35
2022-10-15T03:28:53.610Z,22.30
2022-10-15T03:31:20.253Z,15.38
2022-10-15T03:33:46.928Z,23.50
2022-10-15T03:36:13.448Z,22.35
2022-10-15T03:38:40.045Z,19.13
2022-10-15T03:41:06.528Z,18.95
2022-10-15T03:43:33.930Z,21.95
2022-10-15T03:46:02.931Z,12.43
2022-10-15T03:48:29.760Z,17.48
2022-10-15T03:50:56.763Z,15.60
2022-10-15T03:53:24.189Z,14.23
2022-10-15T03:55:50.681Z,16.63
2022-10-15T03:58:17.348Z,18.60
2022-10-15T04:00:45.233Z,27.10
2022-10-15T04:03:11.736Z,18.10
2022-10-15T04:05:38.209Z,18.42
2022-10-15T04:08:04.911Z,20.45
2022-10-15T04:10:31.439Z,19.67
2022-10-15T04:12:57.924Z,20.70
2022-10-15T04:15:24.508Z,18.25
2022-10-15T04:17:54.346Z,21.70
2022-10-15T04:20:20.809Z,27.90
2022-10-15T04:22:47.459Z,22.30
2022-10-15T04:25:14.052Z,20.65
2022-10-15T04:27:40.524Z,17.95
2022-10-15T04:30:07.523Z,17.90
2022-10-15T04:32:34.438Z,19.85
2022-10-15T04:35:00.996Z,15.40
2022-10-15T04:37:27.576Z,21.10
2022-10-15T04:39:54.054Z,24.23
2022-10-15T04:42:20.532Z,21.35
2022-10-15T04:44:47.037Z,22.85
2022-10-15T04:47:13.511Z,20.55
2022-10-15T04:49:39.997Z,17.85
2022-10-15T04:52:06.516Z,18.27
2022-10-15T04:54:32.991Z,16.88
2022-10-15T04:56:59.476Z,18.15
2022-10-15T04:59:26.293Z,21.02
2022-10-15T05:01:52.787Z,17.77
2022-10-15T05:04:19.254Z,20.70
2022-10-15T05:06:46.056Z,21.58
2022-10-15T05:09:12.602Z,17.88
2022-10-15T05:11:39.164Z,13.98
2022-10-15T05:14:06.403Z,16.15
2022-10-15T05:16:33.196Z,14.55
2022-10-15T05:19:02.789Z,12.25
2022-10-15T05:21:30.104Z,13.38
2022-10-15T05:23:57.387Z,12.50
2022-10-15T05:26:26.125Z,14.63
2022-10-15T05:28:52.901Z,14.57
2022-10-15T05:31:24.390Z,16.38
2022-10-15T05:33:52.784Z,13.88
2022-10-15T05:36:23.826Z,17.35
2022-10-15T05:38:55.899Z,13.98
2022-10-15T05:41:23.116Z,18.83
2022-10-15T05:43:51.178Z,17.92
2022-10-15T05:46:18.535Z,16.48
2022-10-15T05:48:52.834Z,22.33
2022-10-15T05:51:19.732Z,19.92
2022-10-15T05:53:46.396Z,19.20
2022-10-15T05:56:16.258Z,19.95
2022-10-15T05:58:42.819Z,17.02
2022-10-15T06:01:11.851Z,17.35
2022-10-15T06:03:40.182Z,16.95
2022-10-15T06:06:21.028Z,15.18
2022-10-15T06:08:48.173Z,12.38
2022-10-15T06:11:15.176Z,18.67
2022-10-15T06:13:43.403Z,15.50
2022-10-15T06:16:11.060Z,14.23
2022-10-15T06:18:38.415Z,13.93
2022-10-15T06:21:09.571Z,11.75
2022-10-15T06:23:36.758Z,14.32
2022-10-15T06:26:08.763Z,8.05
2022-10-15T06:28:36.357Z,11.55
2022-10-15T06:31:03.843Z,11.35
2022-10-15T06:33:31.932Z,10.10
2022-10-15T06:36:10.879Z,15.07
2022-10-15T06:38:37.625Z,15.23
2022-10-15T06:41:05.326Z,16.08
2022-10-15T06:43:34.787Z,12.25
2022-10-15T06:46:03.582Z,14.95
2022-10-15T06:48:30.103Z,15.65
2022-10-15T06:50:58.891Z,15.65
2022-10-15T06:53:25.365Z,15.05
2022-10-15T06:55:51.918Z,17.55
2022-10-15T06:58:18.411Z,14.45
2022-10-15T07:00:44.893Z,16.60
2022-10-15T07:03:11.435Z,17.05
2022-10-15T07:05:38.000Z,13.63
2022-10-15T07:08:05.051Z,11.63
2022-10-15T07:10:31.604Z,13.35
2022-10-15T07:13:02.197Z,13.70
2022-10-15T07:15:29.395Z,15.82
2022-10-15T07:17:56.651Z,19.65
2022-10-15T07:20:24.505Z,17.55
2022-10-15T07:22:55.693Z,16.73
2022-10-15T07:25:22.155Z,15.35
2022-10-15T07:27:48.718Z,17.35
2022-10-15T07:30:15.273Z,15.10
2022-10-15T07:32:44.483Z,16.92
2022-10-15T07:35:13.548Z,15.77
2022-10-15T07:37:40.642Z,15.80
2022-10-15T07:40:07.637Z,23.90
2022-10-15T07:42:34.217Z,18.15
2022-10-15T07:45:00.735Z,16.40
2022-10-15T07:47:27.264Z,31.75
2022-10-15T07:49:53.824Z,19.17
2022-10-15T07:52:20.378Z,12.80
2022-10-15T07:54:46.897Z,19.25
2022-10-15T07:57:13.450Z,13.27
2022-10-15T07:59:39.926Z,12.00
2022-10-15T08:02:06.395Z,15.65
2022-10-15T08:04:33.032Z,12.60
2022-10-15T08:06:59.508Z,12.50
2022-10-15T08:09:25.960Z,10.50
2022-10-15T08:11:52.488Z,17.02
2022-10-15T08:14:18.986Z,12.35
2022-10-15T08:16:45.462Z,18.95
2022-10-15T08:19:12.152Z,10.73
2022-10-15T08:21:39.615Z,16.67
2022-10-15T08:24:07.327Z,15.88
2022-10-15T08:26:34.884Z,17.40
2022-10-15T08:29:01.796Z,13.05
2022-10-15T08:31:28.528Z,12.85
2022-10-15T08:33:55.249Z,12.40
2022-10-15T08:36:21.721Z,9.32
2022-10-15T08:38:48.211Z,15.60
2022-10-15T08:41:40.475Z,9.77
2022-10-15T08:44:15.569Z,11.35
2022-10-15T08:46:48.998Z,7.32
2022-10-15T08:49:34.209Z,17.00
2022-10-15T08:52:17.512Z,9.60
2022-10-15T08:54:44.022Z,10.73
2022-10-15T08:57:41.274Z,13.40
2022-10-15T09:00:24.736Z,10.77
2022-10-15T09:02:51.305Z,12.80
2022-10-15T09:05:29.635Z,10.70
2022-10-15T09:08:13.814Z,17.60
2022-10-15T09:10:53.296Z,19.02
2022-10-15T09:13:39.480Z,14.68
2022-10-15T09:16:15.422Z,12.40
2022-10-15T09:18:46.086Z,13.50
2022-10-15T09:21:13.869Z,19.27
2022-10-15T09:23:41.350Z,12.40
2022-10-15T09:26:16.595Z,17.42
2022-10-15T09:28:55.135Z,16.60
2022-10-15T09:31:28.887Z,15.25
2022-10-15T09:34:22.853Z,18.20
2022-10-15T09:37:00.790Z,17.80
2022-10-15T09:40:04.345Z,18.63
2022-10-15T09:42:42.743Z,28.93
2022-10-15T09:45:15.286Z,28.50
2022-10-15T09:47:43.803Z,17.35
2022-10-15T09:50:15.121Z,14.13
2022-10-15T09:52:50.576Z,20.88
2022-10-15T09:55:41.790Z,20.80
2022-10-15T09:58:19.082Z,19.25
2022-10-15T10:00:54.670Z,20.55
2022-10-15T10:03:23.284Z,20.17
2022-10-15T10:05:50.705Z,18.23
2022-10-15T10:08:27.996Z,23.77
2022-10-15T10:10:58.998Z,17.23
2022-10-15T10:13:30.608Z,18.20
2022-10-15T10:16:11.487Z,19.95
2022-10-15T10:18:38.342Z,25.60
2022-10-15T10:21:20.254Z,24.20
2022-10-15T10:23:46.906Z,22.05
2022-10-15T10:26:13.837Z,19.40
2022-10-15T10:28:49.489Z,19.73
2022-10-15T10:31:16.596Z,18.60
2022-10-15T10:33:50.028Z,15.10
2022-10-15T10:36:32.742Z,10.75
2022-10-15T10:39:11.387Z,15.70
2022-10-15T10:42:30.661Z,16.23
2022-10-15T10:45:18.574Z,7.68
2022-10-15T10:47:45.905Z,16.43
2022-10-15T10:50:31.558Z,15.40
2022-10-15T10:52:58.786Z,13.20
2022-10-15T10:55:37.124Z,15.45
2022-10-15T10:58:04.432Z,14.93
2022-10-15T11:00:49.148Z,7.67
2022-10-15T11:03:36.976Z,15.30
2022-10-15T11:06:12.369Z,9.20
2022-10-15T11:08:38.919Z,11.50
2022-10-15T11:11:33.546Z,9.95
2022-10-15T11:14:20.498Z,5.67
2022-10-15T11:17:00.203Z,5.72
2022-10-15T11:20:12.558Z,13.10
2022-10-15T11:23:09.044Z,6.50
2022-10-15T11:26:20.018Z,8.05
2022-10-15T11:28:55.432Z,5.93
2022-10-15T11:32:01.740Z,6.72
2022-10-15T11:35:08.646Z,7.60
2022-10-15T11:38:02.963Z,12.65
2022-10-15T11:40:32.710Z,9.60
2022-10-15T11:43:21.087Z,9.53
2022-10-15T11:45:55.220Z,8.07
2022-10-15T11:49:02.996Z,7.55
2022-10-15T11:51:32.182Z,11.25
2022-10-15T11:54:04.689Z,8.45
2022-10-15T11:56:38.732Z,8.60
2022-10-15T11:59:28.039Z,5.45
2022-10-15T12:02:00.894Z,8.40
2022-10-15T12:04:36.316Z,4.57
2022-10-15T12:07:06.724Z,8.02
2022-10-15T12:09:40.551Z,10.53
2022-10-15T12:12:25.543Z,9.23
2022-10-15T12:15:18.824Z,9.38
2022-10-15T12:17:47.982Z,10.15
2022-10-15T12:20:18.194Z,10.75
2022-10-15T12:22:47.392Z,10.03
2022-10-15T12:25:35.938Z,9.07
2022-10-15T12:28:08.483Z,13.30
2022-10-15T12:30:36.890Z,10.30
2022-10-15T12:33:22.628Z,14.00
2022-10-15T12:36:00.450Z,15.20
2022-10-15T12:38:31.111Z,13.88
2022-10-15T12:41:10.346Z,15.20
2022-10-15T12:43:48.136Z,11.48
2022-10-15T12:46:14.836Z,7.10
2022-10-15T12:48:43.506Z,6.23
2022-10-15T12:51:22.027Z,5.93
2022-10-15T12:53:50.836Z,5.60
2022-10-15T12:56:17.263Z,6.35
2022-10-15T12:58:47.747Z,7.55
2022-10-15T13:01:14.238Z,6.77
2022-10-15T13:03:54.020Z,5.43
2022-10-15T13:06:20.442Z,15.38
2022-10-15T13:08:54.458Z,13.23
2022-10-15T13:11:26.339Z,14.98
2022-10-15T13:14:02.410Z,14.87
2022-10-15T13:16:30.094Z,15.25
2022-10-15T13:18:56.709Z,14.40
2022-10-15T13:22:09.312Z,9.57
2022-10-15T13:24:41.668Z,9.98
2022-10-15T13:27:16.665Z,7.50
2022-10-15T13:30:13.741Z,7.40
2022-10-15T13:32:50.330Z,11.57
2022-10-15T13:35:28.162Z,10.52
2022-10-15T13:37:57.272Z,9.55
2022-10-15T13:40:29.117Z,9.25
2022-10-15T13:42:59.905Z,11.40
2022-10-15T13:45:26.812Z,8.05
2022-10-15T13:47:54.400Z,28.48
2022-10-15T13:50:25.780Z,12.65
2022-10-15T13:53:08.973Z,7.97
2022-10-15T13:55:38.512Z,10.70
2022-10-15T13:58:27.619Z,9.02
2022-10-15T14:01:09.563Z,10.80
2022-10-15T14:03:37.904Z,8.73
2022-10-15T14:06:17.508Z,6.80
2022-10-15T14:08:44.785Z,6.72
2022-10-15T14:11:12.893Z,5.70
2022-10-15T14:13:47.668Z,6.20
2022-10-15T14:16:28.430Z,11.05
2022-10-15T14:19:10.010Z,9.45
2022-10-15T14:21:42.771Z,5.35
2022-10-15T14:24:14.581Z,5.05
2022-10-15T14:26:41.584Z,5.47
2022-10-15T14:29:19.095Z,5.75
2022-10-15T14:31:48.107Z,7.78
2022-10-15T14:34:34.826Z,9.75
2022-10-15T14:37:03.201Z,8.88
2022-10-15T14:39:35.100Z,9.60
2022-10-15T14:42:04.530Z,9.80
2022-10-15T14:44:41.649Z,14.32
2022-10-15T14:47:19.596Z,16.27
2022-10-15T14:49:46.541Z,15.15
2022-10-15T14:52:16.863Z,14.60
2022-10-15T14:54:51.335Z,21.20
2022-10-15T14:57:30.494Z,16.20
2022-10-15T14:59:57.894Z,14.02
2022-10-15T15:02:27.517Z,10.55
2022-10-15T15:05:08.588Z,14.85
2022-10-15T15:07:35.065Z,12.38
2022-10-15T15:10:01.589Z,9.48
2022-10-15T15:12:29.035Z,14.90
2022-10-15T15:14:55.708Z,12.05
2022-10-15T15:17:24.823Z,10.75
2022-10-15T15:19:53.974Z,15.48
2022-10-15T15:22:30.762Z,13.48
2022-10-15T15:25:00.307Z,10.18
2022-10-15T15:27:29.202Z,10.75
2022-10-15T15:29:56.246Z,11.20
2022-10-15T15:32:24.783Z,8.55
2022-10-15T15:34:53.616Z,8.18
2022-10-15T15:37:22.798Z,7.68
2022-10-15T15:39:50.033Z,10.93
2022-10-15T15:42:19.905Z,9.68
2022-10-15T15:44:47.024Z,10.73
2022-10-15T15:47:14.037Z,12.73
2022-10-15T15:49:41.000Z,12.93
2022-10-15T15:52:11.643Z,13.65
2022-10-15T15:54:38.225Z,9.48
2022-10-15T15:57:04.758Z,18.15
2022-10-15T15:59:31.243Z,16.02
2022-10-15T16:01:57.863Z,18.65
2022-10-15T16:04:24.421Z,18.27
2022-10-15T16:06:50.866Z,21.50
2022-10-15T16:09:18.537Z,15.93
2022-10-15T16:11:45.613Z,18.45
2022-10-15T16:14:12.107Z,10.48
2022-10-15T16:16:38.757Z,10.48
2022-10-15T16:19:05.539Z,12.85
2022-10-15T16:21:32.432Z,14.23
2022-10-15T16:26:30.508Z,10.60
2022-10-15T16:28:56.965Z,6.05
2022-10-15T16:31:29.522Z,12.43
2022-10-15T16:33:57.342Z,7.72
2022-10-15T16:36:24.379Z,8.43
2022-10-15T16:38:50.917Z,9.27
2022-10-15T16:41:18.492Z,6.65
2022-10-15T16:43:45.612Z,10.43
2022-10-15T16:46:12.141Z,11.57
2022-10-15T16:48:38.630Z,10.00
2022-10-15T16:51:11.000Z,11.45
2022-10-15T16:53:38.876Z,9.75
2022-10-15T16:56:08.366Z,9.15
2022-10-15T16:58:34.999Z,8.70
2022-10-15T17:01:04.352Z,12.60
2022-10-15T17:03:34.225Z,11.25
2022-10-15T17:06:02.468Z,6.85
2022-10-15T17:08:37.091Z,7.05
2022-10-15T17:11:03.672Z,6.88
2022-10-15T17:13:30.135Z,6.07
2022-10-15T17:15:59.201Z,6.95
2022-10-15T17:18:28.196Z,4.93
2022-10-15T17:20:54.740Z,10.48
2022-10-15T17:23:21.286Z,9.18
2022-10-15T17:25:47.768Z,8.27
2022-10-15T17:28:15.039Z,9.13
2022-10-15T17:30:41.689Z,7.90
2022-10-15T17:33:08.426Z,7.55
2022-10-15T17:35:38.075Z,8.25
2022-10-15T17:38:04.755Z,14.40
2022-10-15T17:40:31.421Z,8.48
2022-10-15T17:42:57.940Z,9.98
2022-10-15T17:45:24.859Z,10.75
2022-10-15T17:47:51.312Z,8.82
2022-10-15T17:50:17.798Z,13.18
2022-10-15T17:52:44.350Z,26.00
2022-10-15T17:55:10.849Z,30.38
2022-10-15T17:57:37.318Z,31.25
2022-10-15T18:00:05.003Z,23.63
2022-10-15T18:02:31.487Z,26.88
2022-10-15T18:04:57.956Z,22.85
2022-10-15T18:07:24.740Z,20.90
2022-10-15T18:09:51.347Z,22.83
2022-10-15T18:12:17.810Z,31.23
2022-10-15T18:14:44.394Z,29.27
2022-10-15T18:17:10.873Z,34.70
2022-10-15T18:19:37.390Z,26.05
2022-10-15T18:22:04.013Z,40.22
2022-10-15T18:24:30.511Z,35.60
2022-10-15T18:26:56.959Z,32.15
2022-10-15T18:29:23.529Z,37.28
2022-10-15T18:31:56.208Z,36.05
2022-10-15T18:34:24.126Z,34.58
2022-10-15T18:36:50.684Z,29.42
2022-10-15T18:39:17.166Z,27.85
2022-10-15T18:44:16.119Z,25.95
2022-10-15T18:46:43.287Z,27.85
2022-10-15T18:49:09.763Z,24.10
2022-10-15T18:51:36.758Z,30.55
2022-10-15T18:54:03.696Z,28.17
2022-10-15T18:56:30.165Z,30.58
2022-10-15T18:58:56.913Z,27.33
2022-10-15T19:01:30.412Z,31.40
2022-10-15T19:03:59.525Z,26.27
2022-10-15T19:06:29.916Z,28.63
2022-10-15T19:09:00.492Z,25.65
2022-10-15T19:11:27.553Z,30.75
2022-10-15T19:13:57.141Z,23.80
2022-10-15T19:16:23.975Z,32.60
2022-10-15T19:18:50.505Z,31.30
2022-10-15T19:21:17.124Z,34.65
2022-10-15T19:23:43.604Z,27.42
2022-10-15T19:26:11.919Z,36.60
2022-10-15T19:28:38.672Z,30.83
2022-10-15T19:31:07.794Z,32.25
2022-10-15T19:33:34.620Z,32.80
2022-10-15T19:36:01.888Z,32.42
2022-10-15T19:38:28.565Z,30.77
2022-10-15T19:40:55.473Z,33.60
2022-10-15T19:43:23.082Z,28.15
2022-10-15T19:45:49.765Z,34.50
2022-10-15T19:48:19.149Z,32.90
2022-10-15T19:50:47.146Z,34.40
2022-10-15T19:53:17.157Z,23.58
2022-10-15T19:55:54.528Z,27.30
2022-10-15T19:58:21.013Z,43.35
2022-10-15T20:00:51.726Z,33.97
2022-10-15T20:03:18.851Z,37.77
2022-10-15T20:05:46.615Z,37.83
2022-10-15T20:08:13.883Z,35.25
2022-10-15T20:10:41.683Z,23.00
2022-10-15T20:13:08.633Z,33.75
2022-10-15T20:15:35.172Z,33.47
2022-10-15T20:18:01.754Z,28.85
2022-10-15T20:20:28.215Z,21.02
2022-10-15T20:22:54.689Z,40.28
2022-10-15T20:25:21.217Z,38.95
2022-10-15T20:27:47.704Z,39.77
2022-10-15T20:30:14.267Z,26.83
2022-10-15T20:32:40.974Z,24.48
2022-10-15T20:35:08.399Z,23.27
2022-10-15T20:37:34.922Z,25.10
2022-10-15T20:40:01.538Z,28.67
2022-10-15T20:42:28.247Z,24.58
2022-10-15T20:44:55.103Z,31.25
2022-10-15T20:47:23.383Z,33.85
2022-10-15T20:49:53.746Z,29.70
2022-10-15T20:52:23.211Z,27.33
2022-10-15T20:54:51.079Z,34.60
2022-10-15T20:57:17.579Z,26.52
2022-10-15T20:59:44.043Z,31.15
2022-10-15T21:02:10.620Z,27.90
2022-10-15T21:04:37.082Z,34.70
2022-10-15T21:07:03.608Z,45.97
2022-10-15T21:09:30.112Z,30.23
2022-10-15T21:11:56.584Z,37.03
2022-10-15T21:14:23.436Z,33.33
2022-10-15T21:16:50.073Z,35.60
2022-10-15T21:19:16.597Z,31.98
2022-10-15T21:21:43.059Z,38.22
2022-10-15T21:24:09.621Z,35.65
2022-10-15T21:26:36.265Z,35.03
2022-10-15T21:29:02.802Z,34.17
2022-10-15T21:31:29.458Z,37.60
2022-10-15T21:33:56.357Z,32.65
2022-10-15T21:36:27.992Z,33.42
2022-10-15T21:38:56.873Z,28.50
2022-10-15T21:41:24.636Z,25.20
2022-10-15T21:43:51.520Z,35.97
2022-10-15T21:46:18.937Z,40.42
2022-10-15T21:48:45.896Z,25.60
2022-10-15T21:51:14.950Z,28.35
2022-10-15T21:53:41.937Z,37.03
2022-10-15T21:56:08.932Z,28.55
2022-10-15T21:58:36.619Z,25.88
2022-10-15T22:01:21.317Z,26.65
2022-10-15T22:03:49.465Z,18.52
2022-10-15T22:06:16.902Z,29.03
2022-10-15T22:08:43.842Z,27.20
2022-10-15T22:11:13.457Z,27.33
2022-10-15T22:13:43.779Z,24.20
2022-10-15T22:16:11.456Z,28.00
2022-10-15T22:18:38.477Z,31.00
2022-10-15T22:21:13.381Z,28.70
2022-10-15T22:23:39.867Z,34.95
2022-10-15T22:26:06.327Z,20.83
2022-10-15T22:28:32.957Z,25.25
2022-10-15T22:31:05.196Z,30.03
2022-10-15T22:33:31.816Z,28.27
2022-10-15T22:36:06.405Z,26.83
2022-10-15T22:38:33.568Z,14.02
2022-10-15T22:41:00.035Z,28.85
2022-10-15T22:43:26.616Z,35.07
2022-10-15T22:45:53.088Z,28.35
2022-10-15T22:48:19.541Z,27.88
2022-10-15T22:50:46.047Z,30.40
2022-10-15T22:53:12.507Z,24.88
2022-10-15T22:55:38.981Z,30.87
2022-10-15T22:58:05.545Z,30.42
2022-10-15T23:00:31.994Z,28.55
2022-10-15T23:02:58.467Z,30.88
2022-10-15T23:05:25.038Z,27.38
2022-10-15T23:07:52.009Z,39.33
2022-10-15T23:10:18.464Z,28.58
2022-10-15T23:12:45.077Z,27.00
2022-10-15T23:15:11.519Z,27.83
2022-10-15T23:17:37.977Z,22.95
2022-10-15T23:20:04.996Z,31.17
2022-10-15T23:22:31.471Z,27.98
2022-10-15T23:24:57.949Z,27.00
2022-10-15T23:27:24.644Z,27.80
2022-10-15T23:30:01.788Z,32.80
2022-10-15T23:32:38.169Z,32.43
2022-10-15T23:35:06.966Z,24.65
2022-10-15T23:37:33.905Z,11.63
2022-10-15T23:40:00.429Z,20.35
2022-10-15T23:42:26.901Z,17.25
2022-10-15T23:44:53.358Z,18.53
2022-10-15T23:47:19.880Z,22.02
2022-10-15T23:49:46.346Z,19.70
2022-10-15T23:52:12.812Z,16.88
2022-10-15T23:54:39.424Z,21.45
2022-10-15T23:57:05.921Z,19.53
2022-10-15T23:59:32.471Z,17.55
